Ashford, Washington
Current Conditions -  °F | °C
As of 12:23 AM on Sunday 23 Nov 2014 (Local Time) from KGRF Reporting Station
Unknown Precip Unknown Precip  
Wind Chill: 39°   Ceiling: 2900
Heat Index: 45°   Visibility: 10mi
Dew Point: 45°   Wind: 12mph
Humidity: 100%   Direction: 160°SSE
Pressure: 30.16"   Gusts: NA
Location:  46.76°N, 122.03°W
Report Text: KGRF 230823Z AUTO 16010KT 10SM UP BKN029 BKN045 BKN100 07/07 A3016 RMK AO2 CIG 029V037
Loading
Personal Weather Stations






























Interactive Weather Map New forecast layout! Learn more

10-Day Weather Forecast

Advertisements
Track Severe Weather on mobile